Time;durP1;ratioP1;P1;durP2;ratioP2;P2;SDS_P1;SDS_P2;PMS_P1;PMS_P2;Temp;Humidity;BMP_temperature;BMP_pressure;BME280_temperature;BME280_humidity;BME280_pressure;Samples;Min_cycle;Max_cycle;Signal;HPM_P1;HPM_P2
2024/02/22 00:02:17;;;;;;;45.50;28.20;;;103.10;2227.20;;;;;;4830752;29;20104;-81
2024/02/22 00:04:43;;;;;;;39.33;24.40;;;103.20;2227.20;;;;;;4840867;29;20030;-77
2024/02/22 00:07:10;;;;;;;47.67;26.17;;;103.20;2227.20;;;;;;4839929;29;20394;-72
2024/02/22 00:09:36;;;;;;;34.65;21.08;;;103.20;2227.20;;;;;;4840429;29;20034;-77
2024/02/22 00:12:03;;;;;;;66.47;34.38;;;103.20;2227.20;;;;;;4839532;29;20022;-70
2024/02/22 00:14:29;;;;;;;82.28;40.33;;;103.10;2227.20;;;;;;4839791;29;20057;-69
2024/02/22 00:16:54;;;;;;;58.40;34.85;;;103.10;2227.20;;;;;;4839585;29;20072;-72
2024/02/22 00:19:20;;;;;;;54.25;36.38;;;103.00;2227.20;;;;;;4839789;29;20037;-75
2024/02/22 00:21:46;;;;;;;53.85;33.08;;;103.00;2227.20;;;;;;4837534;29;20090;-74
2024/02/22 00:24:12;;;;;;;52.78;33.78;;;103.00;2227.20;;;;;;4833438;29;20034;-71
2024/02/22 00:26:38;;;;;;;54.58;34.00;;;102.90;2227.20;;;;;;4822980;29;20034;-73
2024/02/22 00:29:03;;;;;;;58.40;33.92;;;102.90;2227.20;;;;;;4822224;29;20042;-73
2024/02/22 00:31:29;;;;;;;49.85;33.30;;;102.90;2227.20;;;;;;4834826;29;20034;-82
2024/02/22 00:33:55;;;;;;;48.35;32.65;;;102.90;2227.20;;;;;;4840084;29;20066;-77
2024/02/22 00:36:20;;;;;;;195.18;90.75;;;102.90;2227.20;;;;;;4840571;29;20042;-75
2024/02/22 00:38:46;;;;;;;147.70;67.22;;;102.80;2227.20;;;;;;4840001;29;20187;-75
2024/02/22 00:41:12;;;;;;;84.07;46.92;;;102.80;2227.20;;;;;;4840338;29;20033;-72
2024/02/22 00:43:37;;;;;;;59.42;28.48;;;102.80;2227.20;;;;;;4839881;29;20388;-70
2024/02/22 00:46:04;;;;;;;20.35;14.65;;;102.80;2227.20;;;;;;4840352;29;20046;-77
2024/02/22 00:48:29;;;;;;;69.45;32.50;;;102.90;2227.20;;;;;;4839934;29;20542;-74
2024/02/22 00:50:55;;;;;;;49.63;24.10;;;102.80;2227.20;;;;;;4840215;29;20034;-77
2024/02/22 00:53:22;;;;;;;60.42;30.65;;;102.80;2227.20;;;;;;4839742;29;20045;-78
2024/02/22 00:55:48;;;;;;;24.80;14.80;;;102.80;2227.20;;;;;;4839600;29;20038;-73
2024/02/22 00:58:14;;;;;;;33.08;18.08;;;102.70;2227.20;;;;;;4839588;29;20381;-69
2024/02/22 01:00:40;;;;;;;190.90;86.53;;;102.80;2227.20;;;;;;4839101;29;20090;-71
2024/02/22 01:03:06;;;;;;;39.75;21.60;;;102.80;2227.20;;;;;;4839932;29;20037;-77
2024/02/22 01:05:31;;;;;;;85.38;41.60;;;102.70;2227.20;;;;;;4840022;29;20034;-76
2024/02/22 01:07:57;;;;;;;125.68;60.03;;;102.70;2227.20;;;;;;4839903;29;20038;-74
2024/02/22 01:10:23;;;;;;;98.32;48.17;;;102.60;2227.20;;;;;;4839849;29;20034;-69
2024/02/22 01:12:49;;;;;;;32.20;19.70;;;102.50;2227.20;;;;;;4839825;29;20022;-79
2024/02/22 01:15:15;;;;;;;26.50;16.20;;;102.40;2227.20;;;;;;4839268;29;20540;-75
2024/02/22 01:17:41;;;;;;;30.80;18.23;;;77.50;2227.20;;;;;;4840039;29;20033;-80
2024/02/22 01:20:10;;;;;;;40.92;21.02;;;77.60;2227.20;;;;;;4839618;29;20385;-80
2024/02/22 01:22:36;;;;;;;20.73;11.95;;;77.40;2227.20;;;;;;4839407;29;20061;-79
2024/02/22 01:25:02;;;;;;;38.50;22.80;;;77.50;2227.20;;;;;;4839425;29;20037;-69
2024/02/22 01:27:28;;;;;;;19.63;11.02;;;77.60;2227.20;;;;;;4839404;29;20030;-76
2024/02/22 01:29:53;;;;;;;14.43;9.95;;;77.50;2227.20;;;;;;4839109;29;20026;-70
2024/02/22 01:32:19;;;;;;;51.88;28.67;;;77.60;2227.20;;;;;;4839524;29;20049;-76
2024/02/22 01:34:45;;;;;;;21.45;12.73;;;77.60;2227.20;;;;;;4839152;29;20508;-82
2024/02/22 01:37:11;;;;;;;15.38;10.00;;;77.70;2227.20;;;;;;4839423;29;20037;-81
2024/02/22 01:39:36;;;;;;;25.23;13.73;;;77.70;2227.20;;;;;;4838741;29;20110;-75
2024/02/22 01:42:02;;;;;;;81.35;38.88;;;77.70;2227.20;;;;;;4839265;29;20470;-78
2024/02/22 01:44:29;;;;;;;33.05;17.30;;;77.70;2227.20;;;;;;4838784;29;20038;-82
2024/02/22 01:46:56;;;;;;;32.10;16.13;;;102.40;2227.20;;;;;;4839025;29;20034;-74
2024/02/22 01:49:25;;;;;;;68.07;33.75;;;102.50;2227.20;;;;;;4839221;29;20400;-75
2024/02/22 01:52:02;;;;;;;25.65;11.93;;;102.40;2227.20;;;;;;4839145;29;20046;-77
2024/02/22 01:54:28;;;;;;;19.35;14.27;;;77.70;2227.20;;;;;;4838738;29;20130;-71
2024/02/22 01:56:55;;;;;;;21.70;14.93;;;77.60;2227.20;;;;;;4839021;29;20064;-70
2024/02/22 01:59:21;;;;;;;68.10;33.78;;;77.50;2227.20;;;;;;4838337;29;20054;-78
2024/02/22 02:01:52;;;;;;;185.20;84.43;;;77.40;2227.20;;;;;;4839026;29;20061;-78
2024/02/22 02:04:18;;;;;;;82.13;41.90;;;77.50;2227.20;;;;;;4850753;29;20101;-76
2024/02/22 02:06:45;;;;;;;34.08;22.40;;;77.50;2227.20;;;;;;4838689;29;20037;-77
2024/02/22 02:09:13;;;;;;;55.95;29.60;;;77.60;2227.20;;;;;;4839760;29;20053;-73
2024/02/22 02:11:41;;;;;;;32.15;17.85;;;77.70;2227.20;;;;;;4838845;29;20639;-73
2024/02/22 02:14:07;;;;;;;56.40;29.75;;;77.60;2227.20;;;;;;4838560;29;20034;-78
2024/02/22 02:16:33;;;;;;;36.78;20.35;;;77.60;2227.20;;;;;;4838860;29;20040;-76
2024/02/22 02:18:59;;;;;;;37.80;21.88;;;77.70;2227.20;;;;;;4838423;29;20102;-81
2024/02/22 02:22:07;;;;;;;25.23;16.13;;;77.70;2227.20;;;;;;4838374;29;20037;-80
2024/02/22 02:24:40;;;;;;;48.15;26.08;;;77.70;2227.20;;;;;;4838537;29;20026;-79
2024/02/22 02:27:06;;;;;;;64.43;32.83;;;77.60;2227.20;;;;;;4838503;29;20078;-79
2024/02/22 02:29:31;;;;;;;37.50;26.83;;;77.60;2227.20;;;;;;4838412;29;20034;-71
2024/02/22 02:31:57;;;;;;;32.95;19.55;;;77.60;2227.20;;;;;;4838326;29;20114;-67
2024/02/22 02:34:23;;;;;;;62.08;31.45;;;77.50;2227.20;;;;;;4838438;29;20033;-78
2024/02/22 02:36:49;;;;;;;29.95;16.52;;;77.60;2227.20;;;;;;4838191;29;20034;-74
2024/02/22 02:39:14;;;;;;;23.60;10.80;;;77.50;2227.20;;;;;;4838060;29;20074;-69
2024/02/22 02:41:40;;;;;;;39.25;21.85;;;77.40;2227.20;;;;;;4838339;29;20030;-72
2024/02/22 02:44:06;;;;;;;172.18;78.32;;;77.40;2227.20;;;;;;4838132;29;20034;-74
2024/02/22 02:46:32;;;;;;;63.50;32.30;;;77.30;2227.20;;;;;;4838325;29;20037;-76
2024/02/22 02:48:57;;;;;;;90.03;46.20;;;77.30;2227.20;;;;;;4838365;29;20113;-78
2024/02/22 02:51:23;;;;;;;45.85;25.55;;;77.20;2227.20;;;;;;4837959;29;20037;-69
2024/02/22 02:53:49;;;;;;;24.08;14.95;;;77.20;2227.20;;;;;;4837918;29;20053;-73
2024/02/22 02:56:15;;;;;;;58.95;30.02;;;77.20;2227.20;;;;;;4838057;29;20033;-76
2024/02/22 02:58:40;;;;;;;78.63;39.33;;;77.20;2227.20;;;;;;4838270;29;20042;-70
2024/02/22 03:01:07;;;;;;;56.78;29.17;;;77.20;2227.20;;;;;;4837621;29;20029;-72
2024/02/22 03:03:33;;;;;;;72.80;35.50;;;77.20;2227.20;;;;;;4838309;29;20022;-76
2024/02/22 03:05:59;;;;;;;61.67;29.55;;;77.10;2227.20;;;;;;4838305;29;20034;-78
2024/02/22 03:08:26;;;;;;;101.40;46.42;;;77.20;2227.20;;;;;;4837770;29;20053;-78
2024/02/22 03:10:51;;;;;;;257.48;114.80;;;77.30;2227.20;;;;;;4838044;29;20490;-75
2024/02/22 03:13:17;;;;;;;168.15;70.80;;;77.30;2227.20;;;;;;4838405;29;20094;-75
2024/02/22 03:15:43;;;;;;;35.55;19.35;;;77.20;2227.20;;;;;;4837904;29;20049;-79
2024/02/22 03:18:09;;;;;;;90.13;44.95;;;77.10;2227.20;;;;;;4838134;29;20485;-74
2024/02/22 03:20:35;;;;;;;26.05;13.63;;;76.80;2227.20;;;;;;4837789;29;20500;-76
2024/02/22 03:23:01;;;;;;;253.77;123.65;;;76.90;2227.20;;;;;;4838074;29;20060;-72
2024/02/22 03:25:30;;;;;;;48.72;24.98;;;76.80;2227.20;;;;;;4837892;29;20696;-77
2024/02/22 03:27:58;;;;;;;26.15;13.80;;;76.80;2227.20;;;;;;4837798;29;20037;-77
2024/02/22 03:30:25;;;;;;;100.28;51.33;;;51.90;2227.20;;;;;;4837770;29;20101;-78
2024/02/22 03:32:51;;;;;;;29.40;17.95;;;51.70;2227.20;;;;;;4838005;29;20117;-77
2024/02/22 03:35:18;;;;;;;29.08;15.90;;;51.70;2227.20;;;;;;4837616;29;20034;-82
2024/02/22 03:37:43;;;;;;;27.60;14.48;;;51.80;2227.20;;;;;;4837941;29;20543;-74
2024/02/22 03:40:11;;;;;;;39.78;22.23;;;51.90;2227.20;;;;;;4837520;29;20042;-78
2024/02/22 03:42:37;;;;;;;44.88;23.23;;;52.00;2227.20;;;;;;4837976;29;20082;-73
2024/02/22 03:45:05;;;;;;;75.32;40.35;;;76.80;2227.20;;;;;;4837419;29;20389;-71
2024/02/22 03:47:31;;;;;;;160.52;75.72;;;77.00;2227.20;;;;;;4838084;29;20038;-71
2024/02/22 03:49:56;;;;;;;33.65;25.55;;;77.10;2227.20;;;;;;4837668;29;20102;-79
2024/02/22 03:52:23;;;;;;;13.50;9.13;;;77.30;2227.20;;;;;;4837846;29;20041;-75
2024/02/22 03:54:50;;;;;;;22.70;12.30;;;77.30;2227.20;;;;;;4837159;29;20532;-68
2024/02/22 03:57:15;;;;;;;38.95;22.90;;;77.40;2227.20;;;;;;4837740;29;20067;-75
2024/02/22 03:59:41;;;;;;;47.70;28.42;;;77.40;2227.20;;;;;;4837543;29;20042;-80
2024/02/22 04:02:07;;;;;;;33.40;21.17;;;77.30;2227.20;;;;;;4837851;29;20478;-74
2024/02/22 04:04:33;;;;;;;87.72;42.55;;;77.40;2227.20;;;;;;4840808;29;20032;-77
2024/02/22 04:06:59;;;;;;;78.72;43.13;;;77.30;2227.20;;;;;;4840949;29;20128;-78
2024/02/22 04:09:24;;;;;;;34.90;20.38;;;77.10;2227.20;;;;;;4840556;29;20086;-75
2024/02/22 04:11:50;;;;;;;53.83;31.48;;;77.10;2227.20;;;;;;4840917;29;20040;-75
2024/02/22 04:14:16;;;;;;;23.40;11.50;;;77.00;2227.20;;;;;;4840799;29;20106;-78
2024/02/22 04:16:41;;;;;;;23.35;14.57;;;76.90;2227.20;;;;;;4841399;29;20029;-72
2024/02/22 04:19:07;;;;;;;20.55;14.07;;;76.90;2227.20;;;;;;4840616;29;20044;-73
2024/02/22 04:21:38;;;;;;;23.25;13.77;;;76.90;2227.20;;;;;;4849474;29;20463;-75
2024/02/22 04:24:04;;;;;;;23.30;15.55;;;77.40;2227.20;;;;;;4841088;29;20038;-77
2024/02/22 04:26:30;;;;;;;28.98;19.08;;;77.10;2227.20;;;;;;4840917;29;20056;-80
2024/02/22 04:28:56;;;;;;;31.75;19.90;;;77.00;2227.20;;;;;;4840560;29;20030;-74
2024/02/22 04:31:21;;;;;;;22.15;14.13;;;76.90;2227.20;;;;;;4840736;29;20034;-76
2024/02/22 04:33:47;;;;;;;17.58;11.30;;;76.90;2227.20;;;;;;4840104;29;20057;-72
2024/02/22 04:36:14;;;;;;;23.15;14.40;;;77.00;2227.20;;;;;;4840731;29;20096;-79
2024/02/22 04:38:40;;;;;;;14.70;9.98;;;77.00;2227.20;;;;;;4840475;29;20062;-81
2024/02/22 04:41:07;;;;;;;14.88;10.00;;;77.00;2227.20;;;;;;4840431;29;20030;-82
2024/02/22 04:43:33;;;;;;;17.40;10.05;;;77.00;2227.20;;;;;;4840447;29;20390;-80
2024/02/22 04:45:59;;;;;;;18.45;12.43;;;77.00;2227.20;;;;;;4840286;29;20034;-78
2024/02/22 04:48:25;;;;;;;19.55;13.20;;;77.00;2227.20;;;;;;4840247;29;20481;-75
2024/02/22 04:50:51;;;;;;;13.90;9.88;;;77.00;2227.20;;;;;;4840495;29;20121;-69
2024/02/22 04:53:16;;;;;;;17.95;10.60;;;77.00;2227.20;;;;;;4839758;29;20037;-76
2024/02/22 04:55:42;;;;;;;14.32;9.50;;;77.10;2227.20;;;;;;4840154;29;20063;-78
2024/02/22 04:58:08;;;;;;;15.77;9.88;;;77.20;2227.20;;;;;;4840086;29;20052;-71
2024/02/22 05:00:34;;;;;;;21.60;15.10;;;77.20;2227.20;;;;;;4840186;29;20451;-82
2024/02/22 05:03:00;;;;;;;16.23;10.27;;;77.20;2227.20;;;;;;4840047;29;20073;-85
2024/02/22 05:05:26;;;;;;;20.08;9.63;;;77.30;2227.20;;;;;;4839958;29;20500;-78
2024/02/22 05:07:52;;;;;;;679.33;483.75;;;77.30;2227.20;;;;;;4839998;29;20030;-78
2024/02/22 05:10:17;;;;;;;32.50;20.92;;;77.20;2227.20;;;;;;4839740;29;20052;-80
2024/02/22 05:12:43;;;;;;;24.58;19.50;;;77.20;2227.20;;;;;;4839840;29;20037;-79
2024/02/22 05:15:13;;;;;;;19.63;11.82;;;77.20;2227.20;;;;;;4839376;29;20035;-78
2024/02/22 05:17:41;;;;;;;18.60;12.82;;;77.10;2227.20;;;;;;4839655;29;20105;-80
2024/02/22 05:20:08;;;;;;;22.20;12.50;;;77.10;2227.20;;;;;;4839558;29;20378;-81
2024/02/22 05:22:33;;;;;;;32.30;17.17;;;77.10;2227.20;;;;;;4851523;29;20116;-83
2024/02/22 05:24:59;;;;;;;36.35;22.90;;;77.10;2227.20;;;;;;4839444;29;20121;-78
2024/02/22 05:27:25;;;;;;;40.53;25.63;;;77.30;2227.20;;;;;;4839520;29;20434;-75
2024/02/22 05:29:51;;;;;;;33.95;21.65;;;77.60;2227.20;;;;;;4839324;29;20397;-77
2024/02/22 05:32:16;;;;;;;35.65;22.92;;;77.40;2227.20;;;;;;4839405;29;20554;-81
2024/02/22 05:34:43;;;;;;;37.72;23.40;;;77.50;2227.20;;;;;;4839792;29;20093;-76
2024/02/22 05:37:11;;;;;;;83.25;52.67;;;77.50;2227.20;;;;;;4839413;29;20074;-73
2024/02/22 05:39:37;;;;;;;62.72;37.42;;;77.50;2227.20;;;;;;4822614;29;20048;-74
2024/02/22 05:42:03;;;;;;;57.85;33.65;;;77.50;2227.20;;;;;;4839936;29;20030;-75
2024/02/22 05:44:29;;;;;;;83.22;53.55;;;77.60;2227.20;;;;;;4839086;29;20029;-75
2024/02/22 05:46:55;;;;;;;78.93;46.35;;;77.50;2227.20;;;;;;4839222;29;20473;-72
2024/02/22 05:49:20;;;;;;;84.15;53.08;;;77.50;2227.20;;;;;;4839366;29;20667;-78
2024/02/22 05:51:46;;;;;;;90.70;52.13;;;77.60;2227.20;;;;;;4838958;29;20029;-74
2024/02/22 05:54:12;;;;;;;90.90;58.33;;;77.60;2227.20;;;;;;4838731;29;20065;-74
2024/02/22 05:56:38;;;;;;;97.43;60.85;;;77.70;2227.20;;;;;;4838824;29;20105;-78
2024/02/22 05:59:03;;;;;;;89.95;56.58;;;77.70;2227.20;;;;;;4839059;29;20148;-72
2024/02/22 06:01:29;;;;;;;50.53;31.63;;;77.70;2227.20;;;;;;4839168;29;20026;-76
2024/02/22 06:03:55;;;;;;;94.40;54.58;;;77.60;2227.20;;;;;;4838715;29;20033;-68
2024/02/22 06:06:20;;;;;;;85.97;53.00;;;77.70;2227.20;;;;;;4834171;29;20026;-74
2024/02/22 06:08:46;;;;;;;71.85;44.03;;;102.50;2227.20;;;;;;4845222;29;20038;-77
2024/02/22 06:11:19;;;;;;;73.50;46.72;;;102.50;2227.20;;;;;;4838779;29;20110;-79
2024/02/22 06:13:45;;;;;;;66.72;43.63;;;102.50;2227.20;;;;;;4838842;29;20090;-76
2024/02/22 06:16:11;;;;;;;61.65;35.00;;;102.60;2227.20;;;;;;4846207;29;20026;-77
2024/02/22 06:18:37;;;;;;;34.45;22.95;;;102.80;2227.20;;;;;;4843209;29;20034;-76
2024/02/22 06:21:03;;;;;;;35.65;22.83;;;102.70;2227.20;;;;;;4846187;29;20082;-70
2024/02/22 06:23:29;;;;;;;35.67;21.13;;;102.80;2227.20;;;;;;4842911;29;20037;-75
2024/02/22 06:25:56;;;;;;;25.13;17.38;;;102.90;2227.20;;;;;;4837766;29;20060;-75
2024/02/22 06:28:23;;;;;;;21.55;13.93;;;102.90;2227.20;;;;;;4838580;29;20034;-78
2024/02/22 06:30:48;;;;;;;28.08;18.83;;;103.00;2227.20;;;;;;4838566;29;20086;-78
2024/02/22 06:33:14;;;;;;;18.58;12.38;;;102.90;2227.20;;;;;;4838074;29;20431;-75
2024/02/22 06:35:40;;;;;;;30.75;27.60;;;102.80;2227.20;;;;;;4838394;29;20086;-73
2024/02/22 06:38:05;;;;;;;15.82;11.57;;;102.90;2227.20;;;;;;4838078;29;20066;-78
2024/02/22 06:40:31;;;;;;;15.38;11.48;;;103.00;2227.20;;;;;;4838365;29;20045;-74
2024/02/22 06:42:57;;;;;;;22.25;15.80;;;103.10;2227.20;;;;;;4838010;29;20556;-80
2024/02/22 06:45:24;;;;;;;19.90;15.13;;;103.30;2227.20;;;;;;4838341;29;20038;-77
2024/02/22 06:47:50;;;;;;;17.38;10.65;;;128.10;2252.80;;;;;;4838105;29;20049;-81
2024/02/22 06:50:16;;;;;;;15.35;9.73;;;128.90;2252.80;;;;;;4838178;29;20037;-79
2024/02/22 06:52:43;;;;;;;14.52;10.45;;;179.20;2252.80;;;;;;4837949;29;20030;-74
2024/02/22 06:55:09;;;;;;;21.10;12.20;;;179.20;2252.80;;;;;;4837920;29;20066;-80
2024/02/22 06:57:38;;;;;;;61.05;38.95;;;179.20;2252.80;;;;;;4850219;29;20061;-71
2024/02/22 07:00:05;;;;;;;83.57;55.03;;;179.40;2252.80;;;;;;4838025;29;20549;-77
2024/02/22 07:02:31;;;;;;;43.05;28.50;;;179.50;2252.80;;;;;;4838222;29;20438;-73
2024/02/22 07:04:57;;;;;;;55.35;33.60;;;179.50;2252.80;;;;;;4838355;29;20113;-79
2024/02/22 07:07:22;;;;;;;69.40;49.33;;;179.80;2252.80;;;;;;4838356;29;20113;-80
2024/02/22 07:09:48;;;;;;;75.68;59.20;;;180.00;2252.80;;;;;;4838094;29;20037;-79
2024/02/22 07:12:14;;;;;;;69.47;51.95;;;204.90;2252.80;;;;;;4837234;29;20062;-73
2024/02/22 07:14:40;;;;;;;71.82;51.70;;;205.00;2252.80;;;;;;4837373;29;20444;-77
2024/02/22 07:17:07;;;;;;;67.20;49.42;;;205.10;2252.80;;;;;;4836253;29;20049;-78
2024/02/22 07:19:33;;;;;;;64.82;42.95;;;205.20;2252.80;;;;;;4837039;29;20046;-77
2024/02/22 07:21:58;;;;;;;68.78;44.35;;;205.10;2252.80;;;;;;4836976;29;20027;-79
2024/02/22 07:24:24;;;;;;;100.35;67.13;;;205.40;2252.80;;;;;;4837811;29;20090;-80
2024/02/22 07:26:50;;;;;;;101.35;74.97;;;205.20;2252.80;;;;;;4837982;29;20025;-82
2024/02/22 07:29:17;;;;;;;106.72;77.15;;;205.00;2252.80;;;;;;4837901;29;20038;-80
2024/02/22 07:31:43;;;;;;;108.40;74.05;;;204.80;2252.80;;;;;;4837902;29;20086;-82
2024/02/22 07:34:08;;;;;;;83.40;57.55;;;205.10;2252.80;;;;;;4837832;29;20409;-80
2024/02/22 07:36:35;;;;;;;69.22;53.30;;;205.20;2252.80;;;;;;4833308;29;20477;-76
2024/02/22 07:39:01;;;;;;;75.88;52.28;;;230.40;2252.80;;;;;;4841516;29;20507;-80
2024/02/22 07:41:27;;;;;;;122.88;95.65;;;256.50;2252.80;;;;;;4838698;29;20034;-77
2024/02/22 07:43:53;;;;;;;102.18;72.70;;;282.20;2278.40;;;;;;4838856;29;20044;-83
2024/02/22 07:46:19;;;;;;;77.55;58.10;;;307.90;2304.00;;;;;;4841226;29;20109;-77
2024/02/22 07:48:45;;;;;;;97.25;74.30;;;333.60;2227.20;;;;;;4840554;29;20037;-74
2024/02/22 07:51:12;;;;;;;92.90;70.68;;;358.90;2150.40;;;;;;4827312;29;20042;-74
2024/02/22 07:53:38;;;;;;;72.50;59.97;;;409.80;1996.80;;;;;;4842166;29;20128;-79
2024/02/22 07:56:07;;;;;;;71.13;60.97;;;435.90;1894.40;;;;;;4841743;29;20393;-76
2024/02/22 07:58:48;;;;;;;70.55;59.63;;;435.60;1843.20;;;;;;4841204;29;20524;-78
2024/02/22 08:01:17;;;;;;;67.68;59.30;;;435.90;1817.60;;;;;;4841043;29;20029;-74
2024/02/22 08:03:44;;;;;;;80.75;70.18;;;461.40;1792.00;;;;;;4841598;29;20026;-77
2024/02/22 08:06:12;;;;;;;124.03;105.68;;;486.60;1766.40;;;;;;4839699;29;20401;-79
2024/02/22 08:08:39;;;;;;;79.70;69.88;;;512.00;1715.20;;;;;;4841294;29;20086;-76
2024/02/22 08:11:09;;;;;;;93.35;80.97;;;512.40;1638.40;;;;;;4840786;29;20565;-74
2024/02/22 08:13:35;;;;;;;80.03;71.63;;;487.00;1664.00;;;;;;4835042;29;20035;-76
2024/02/22 08:16:05;;;;;;;108.82;87.38;;;486.40;1740.80;;;;;;4836740;29;20105;-79
2024/02/22 08:18:40;;;;;;;161.35;121.60;;;460.80;1766.40;;;;;;4828691;29;20109;-74
2024/02/22 08:21:07;;;;;;;136.73;103.20;;;410.50;1817.60;;;;;;4838046;29;20477;-74
2024/02/22 08:23:33;;;;;;;120.38;94.15;;;435.40;1792.00;;;;;;4824228;29;20112;-78
2024/02/22 08:25:59;;;;;;;112.63;89.13;;;436.00;1766.40;;;;;;4828788;29;20034;-75
2024/02/22 08:28:27;;;;;;;102.45;79.95;;;435.90;1766.40;;;;;;4840712;29;20178;-79
2024/02/22 08:30:53;;;;;;;108.25;87.93;;;460.80;1792.00;;;;;;4840712;29;20026;-76
2024/02/22 08:33:20;;;;;;;103.47;87.00;;;435.30;1792.00;;;;;;4840694;29;20030;-76
2024/02/22 08:35:46;;;;;;;91.60;74.22;;;409.90;1868.80;;;;;;4840780;29;20041;-78
2024/02/22 08:38:13;;;;;;;95.15;74.43;;;409.60;1894.40;;;;;;4840577;29;20022;-74
2024/02/22 08:40:40;;;;;;;119.13;90.03;;;409.90;1868.80;;;;;;4840492;29;20034;-82
2024/02/22 08:43:06;;;;;;;108.35;86.00;;;384.60;1894.40;;;;;;4840231;29;20030;-78
2024/02/22 08:45:33;;;;;;;109.90;85.80;;;384.50;1920.00;;;;;;4840562;29;20552;-78
2024/02/22 08:47:58;;;;;;;144.70;108.28;;;410.50;1868.80;;;;;;4840046;29;20034;-77
2024/02/22 08:50:24;;;;;;;128.85;99.97;;;435.80;1792.00;;;;;;4839777;29;20373;-74
2024/02/22 08:52:50;;;;;;;108.07;87.30;;;435.70;1817.60;;;;;;4840188;29;20041;-76
2024/02/22 08:55:16;;;;;;;111.15;87.45;;;461.20;1766.40;;;;;;4839884;29;20061;-80
2024/02/22 08:57:42;;;;;;;112.05;92.80;;;486.50;1740.80;;;;;;4840252;29;20037;-79
2024/02/22 09:00:11;;;;;;;96.03;85.68;;;512.10;1664.00;;;;;;4823211;29;20098;-75
2024/02/22 09:02:38;;;;;;;124.50;110.10;;;;;;;;;;4839732;29;20026;-75
2024/02/22 09:05:08;;;;;;;178.43;143.93;;;;;;;;;;4839972;29;20030;-74
2024/02/22 09:07:35;;;;;;;171.98;146.90;;;;;;;;;;4840025;29;20101;-78
2024/02/22 09:10:04;;;;;;;97.95;83.30;;;;;;;;;;4840387;29;20074;-76
2024/02/22 09:12:30;;;;;;;98.32;85.63;;;;;;;;;;4840211;29;20040;-78
2024/02/22 09:14:56;;;;;;;116.85;97.82;;;;;;;;;;4840002;29;20038;-79
2024/02/22 09:17:22;;;;;;;98.85;82.80;;;;;;;;;;4839832;29;20101;-74
2024/02/22 09:19:52;;;;;;;113.05;96.45;;;;;;;;;;4839642;29;20121;-72
2024/02/22 09:22:20;;;;;;;138.55;106.80;;;;;;;;;;4836563;29;20426;-76
2024/02/22 09:24:46;;;;;;;117.85;96.38;;;;;;;;;;4827076;29;20106;-77
2024/02/22 09:27:15;;;;;;;72.70;59.53;;;487.30;1664.00;;;;;;4839414;29;20469;-77
2024/02/22 09:29:42;;;;;;;92.10;73.30;;;486.40;1689.60;;;;;;4827187;29;20042;-71
2024/02/22 09:32:09;;;;;;;86.07;73.88;;;486.80;1689.60;;;;;;4839568;29;20385;-73
2024/02/22 09:34:36;;;;;;;60.45;51.35;;;486.80;1664.00;;;;;;4836409;29;20034;-72
2024/02/22 09:37:03;;;;;;;61.55;45.22;;;486.70;1664.00;;;;;;4823114;29;20038;-71
2024/02/22 09:39:30;;;;;;;77.63;58.33;;;461.60;1715.20;;;;;;4824307;29;20034;-72
2024/02/22 09:41:56;;;;;;;51.78;40.55;;;461.20;1740.80;;;;;;4822529;29;20056;-72
2024/02/22 09:44:22;;;;;;;57.85;44.47;;;435.50;1766.40;;;;;;4823905;29;20038;-72
2024/02/22 09:46:49;;;;;;;54.30;39.88;;;435.20;1792.00;;;;;;4824615;29;20071;-75
2024/02/22 09:49:16;;;;;;;46.65;35.97;;;435.30;1792.00;;;;;;4832953;29;20545;-77
2024/02/22 09:51:42;;;;;;;48.92;38.17;;;410.00;1868.80;;;;;;4838900;29;20029;-74
2024/02/22 09:54:10;;;;;;;54.47;42.47;;;410.20;1843.20;;;;;;4837605;29;20061;-75
2024/02/22 09:56:37;;;;;;;50.58;37.63;;;410.30;1843.20;;;;;;4838158;29;20036;-76
2024/02/22 09:59:03;;;;;;;65.25;49.30;;;435.60;1792.00;;;;;;4826720;29;20045;-78
2024/02/22 10:01:29;;;;;;;51.60;40.63;;;435.80;1792.00;;;;;;4838267;29;20018;-71
2024/02/22 10:03:55;;;;;;;52.33;41.25;;;435.30;1817.60;;;;;;4820350;29;20438;-71
2024/02/22 10:06:24;;;;;;;53.47;39.58;;;435.50;1817.60;;;;;;4819784;29;20123;-75
2024/02/22 10:08:49;;;;;;;79.10;59.15;;;410.20;1868.80;;;;;;4834509;29;20026;-69
2024/02/22 10:11:21;;;;;;;69.85;52.38;;;409.80;1868.80;;;;;;4838534;29;20041;-71
2024/02/22 10:13:47;;;;;;;78.72;58.72;;;410.50;1843.20;;;;;;4834499;29;20030;-73
2024/02/22 10:16:17;;;;;;;61.40;49.47;;;435.20;1843.20;;;;;;4837063;29;20402;-74
2024/02/22 10:18:42;;;;;;;70.35;51.55;;;410.30;1843.20;;;;;;4826727;29;20042;-77
2024/02/22 10:21:17;;;;;;;59.33;46.17;;;435.40;1843.20;;;;;;4828245;29;20045;-77
2024/02/22 10:23:46;;;;;;;73.65;55.65;;;410.50;1843.20;;;;;;4834095;29;20037;-74
2024/02/22 10:26:12;;;;;;;61.10;44.38;;;435.20;1868.80;;;;;;4830135;29;20118;-75
2024/02/22 10:28:41;;;;;;;105.15;80.03;;;410.50;1843.20;;;;;;4827499;29;20037;-71
2024/02/22 10:31:07;;;;;;;55.47;42.58;;;435.30;1843.20;;;;;;4824887;29;20103;-71
2024/02/22 10:33:34;;;;;;;108.38;80.50;;;435.20;1868.80;;;;;;4821770;29;20037;-71
2024/02/22 10:36:01;;;;;;;50.25;37.55;;;435.60;1868.80;;;;;;4832980;29;20397;-71
2024/02/22 10:38:29;;;;;;;80.18;56.80;;;435.30;1868.80;;;;;;4836807;29;20064;-74
2024/02/22 10:40:56;;;;;;;71.40;52.03;;;410.50;1868.80;;;;;;4823412;29;20041;-73
2024/02/22 10:43:24;;;;;;;69.43;53.25;;;435.60;1868.80;;;;;;4823253;29;20042;-80
2024/02/22 10:45:54;;;;;;;47.97;35.95;;;435.60;1868.80;;;;;;4826995;29;20030;-74
2024/02/22 10:48:21;;;;;;;49.25;35.30;;;435.50;1868.80;;;;;;4834587;29;20029;-74
2024/02/22 10:50:49;;;;;;;46.72;34.08;;;435.20;1868.80;;;;;;4834417;29;20026;-75
2024/02/22 10:53:16;;;;;;;35.60;25.92;;;435.40;1843.20;;;;;;4832848;29;20052;-75
2024/02/22 10:55:49;;;;;;;42.83;27.55;;;436.10;1792.00;;;;;;4832362;29;20109;-77
2024/02/22 10:58:21;;;;;;;34.90;27.05;;;435.70;1792.00;;;;;;4832579;29;20164;-74
2024/02/22 11:00:48;;;;;;;25.65;21.48;;;460.80;1792.00;;;;;;4822056;29;20092;-73
2024/02/22 11:03:18;;;;;;;31.65;24.27;;;435.90;1766.40;;;;;;4822724;29;20031;-75
2024/02/22 11:05:47;;;;;;;35.90;26.17;;;435.50;1792.00;;;;;;4837257;29;20374;-72
2024/02/22 11:08:20;;;;;;;55.05;35.60;;;435.60;1817.60;;;;;;4835592;29;20027;-73
2024/02/22 11:10:58;;;;;;;;;;;435.90;1817.60;;;;;;4831798;29;20110;-71
2024/02/22 11:13:24;;;;;;;80.22;51.90;;;435.90;1817.60;;;;;;4830653;29;19908;-73
2024/02/22 11:15:50;;;;;;;70.10;47.25;;;435.80;1817.60;;;;;;4839656;29;20030;-73
2024/02/22 11:18:23;;;;;;;46.55;34.50;;;435.80;1843.20;;;;;;4829842;29;20034;-72
2024/02/22 11:20:49;;;;;;;37.72;28.20;;;435.70;1843.20;;;;;;4823715;29;20050;-72
2024/02/22 11:23:16;;;;;;;57.33;38.75;;;435.80;1843.20;;;;;;4833921;29;20057;-73
2024/02/22 11:25:42;;;;;;;48.17;38.35;;;460.80;1843.20;;;;;;4819397;29;20050;-80
2024/02/22 11:28:11;;;;;;;44.13;30.98;;;436.10;1792.00;;;;;;4837106;29;20105;-74
2024/02/22 11:30:37;;;;;;;68.75;59.08;;;460.80;1843.20;;;;;;4839761;29;20488;-73
2024/02/22 11:33:03;;;;;;;48.10;38.42;;;460.80;1843.20;;;;;;4831025;29;20046;-72
2024/02/22 11:35:29;;;;;;;37.65;32.38;;;460.80;1817.60;;;;;;4837865;29;20029;-72
2024/02/22 11:38:05;;;;;;;33.58;27.90;;;461.10;1766.40;;;;;;4837842;29;20102;-74
2024/02/22 11:40:34;;;;;;;31.48;24.45;;;461.40;1766.40;;;;;;4830708;29;20038;-79
2024/02/22 11:43:02;;;;;;;35.83;21.70;;;461.40;1766.40;;;;;;4829427;29;20113;-78
2024/02/22 11:45:30;;;;;;;30.83;20.65;;;461.30;1740.80;;;;;;4831205;29;20061;-83
2024/02/22 11:47:56;;;;;;;21.25;16.02;;;461.40;1740.80;;;;;;4827703;29;20038;-81
2024/02/22 11:50:22;;;;;;;18.58;14.10;;;461.70;1689.60;;;;;;4823372;29;20498;-85
2024/02/22 11:52:49;;;;;;;24.02;15.40;;;461.00;1740.80;;;;;;4844234;29;20114;-78
2024/02/22 11:55:15;;;;;;;31.75;20.52;;;461.10;1740.80;;;;;;4839908;29;20513;-78
2024/02/22 11:57:42;;;;;;;17.50;14.98;;;460.90;1766.40;;;;;;4841637;29;20030;-83
2024/02/22 12:00:08;;;;;;;24.73;19.63;;;461.20;1766.40;;;;;;4841138;29;20041;-80
2024/02/22 12:02:35;;;;;;;17.60;12.35;;;461.50;1766.40;;;;;;4831755;29;20022;-81
2024/02/22 12:05:06;;;;;;;16.75;10.90;;;461.30;1715.20;;;;;;4831723;29;20026;-81